Reklama

Seznam meteostanic a jejich METAR

Vyhledat místa podle abecedy:
A B C D E F G H I J K L M N O P Q R S T U V W X Y Z

Filtrovat:

ID stanice:
a/nebo
Název místa (fulltext):
 
Místo (ID)Naposledy načteno 
Wake Island (PWAK) 15.12.2019 20:58 UTC Zobrazit METAR
PWAK 152058Z AUTO 06011KT 9000 HZ FEW060 26/20 A2999 RMK AO2 SLP162 T02630198 52011 $
Warsaw (EPWA) 15.12.2019 21:00 UTC Zobrazit METAR
EPWA 152100Z 25010KT 9999 FEW033 09/05 Q1007 NOSIG
Washington (KIAD) 15.12.2019 20:52 UTC Zobrazit METAR
KIAD 152052Z 32011KT 10SM FEW060 09/M02 A3004 RMK AO2 SLP173 T00891022 53027
Wellington (NZWN) 15.12.2019 21:00 UTC Zobrazit METAR
NZWN 152100Z AUTO 01013KT 9999 DZ FEW017/// BKN025/// 17/16 Q1010 NOSIG
Windhoek (FYWH) 15.12.2019 21:00 UTC Zobrazit METAR
FYWH 152100Z 13004KT CAVOK 24/08 Q1022 NOSIG
Wroclaw (EPWR) 15.12.2019 21:00 UTC Zobrazit METAR
EPWR 152100Z 25005KT CAVOK 07/02 Q1010
Reklama

Počasí na Váš email

Emaily jsou bez reklamy a bez spamu



Odhlásit newsletter

Reklama


Lunární kalendář

  • 19.12.
  • 26.12.
  • 03.01.
  • 10.01.



Reklama


Reklama
Povinné ručení
Reklama



Reklama